Time;durP1;ratioP1;P1;durP2;ratioP2;P2;SDS_P1;SDS_P2;PMS_P1;PMS_P2;Temp;Humidity;BMP_temperature;BMP_pressure;BME280_temperature;BME280_humidity;BME280_pressure;Samples;Min_cycle;Max_cycle;Signal;HPM_P1;HPM_P2
2022/09/25 00:01:40;;;;;;;17.03;14.80;;;;;15.40;98473.00;;;;16451506;28;20223;-48
2022/09/25 00:09:44;;;;;;;16.30;14.87;;;;;15.10;98466.00;;;;16461257;28;20224;-47
2022/09/25 00:17:47;;;;;;;16.73;15.00;;;;;15.20;98467.00;;;;16478728;28;20246;-49
2022/09/25 00:25:55;;;;;;;16.70;14.93;;;;;14.60;98467.00;;;;16460266;28;20740;-48
2022/09/25 00:33:59;;;;;;;16.10;14.57;;;;;14.60;98468.00;;;;16459299;28;20227;-48
2022/09/25 00:42:04;;;;;;;19.50;17.60;;;;;15.20;98456.00;;;;16459559;28;20236;-49
2022/09/25 00:50:15;;;;;;;16.30;14.80;;;;;15.10;98452.00;;;;16467441;28;20232;-48
2022/09/25 00:58:21;;;;;;;16.70;14.67;;;;;14.80;98431.00;;;;16457471;28;20239;-49
2022/09/25 01:06:25;;;;;;;17.43;15.80;;;;;14.70;98420.00;;;;16454166;28;20200;-48
2022/09/25 01:14:32;;;;;;;18.57;16.77;;;;;14.60;98423.00;;;;16456647;28;20236;-49
2022/09/25 01:22:46;;;;;;;20.60;18.50;;;;;14.80;98436.00;;;;16464221;28;20676;-48
2022/09/25 01:30:53;;;;;;;21.93;19.93;;;;;15.50;98426.00;;;;16466114;28;20229;-48
2022/09/25 01:38:59;;;;;;;26.70;24.13;;;;;15.30;98421.00;;;;16478198;28;20231;-48
2022/09/25 01:47:09;;;;;;;30.80;27.43;;;;;15.30;98434.00;;;;16467257;28;20279;-48
2022/09/25 01:55:17;;;;;;;29.97;26.83;;;;;15.50;98428.00;;;;16461599;28;20227;-49
2022/09/25 02:03:25;;;;;;;25.20;22.77;;;;;15.40;98438.00;;;;16469859;28;20228;-48
2022/09/25 02:11:31;;;;;;;23.70;21.50;;;;;15.40;98436.00;;;;16461519;28;20239;-48
2022/09/25 02:27:55;;;;;;;21.90;19.70;;;;;15.50;98428.00;;;;16454542;28;20590;-48
2022/09/25 02:35:59;;;;;;;22.60;20.30;;;;;15.60;98425.00;;;;16475511;23;20259;-50
2022/09/25 02:44:15;;;;;;;25.53;22.63;;;;;15.40;98431.00;;;;16522568;28;20203;-49
2022/09/25 02:52:26;;;;;;;24.27;21.70;;;;;15.40;98423.00;;;;16531620;28;20706;-49
2022/09/25 03:00:29;;;;;;;22.63;20.53;;;;;15.60;98419.00;;;;16535106;28;20226;-49
2022/09/25 03:08:40;;;;;;;24.43;21.80;;;;;15.50;98409.00;;;;16542220;28;20208;-49
2022/09/25 03:16:47;;;;;;;24.80;21.23;;;;;15.60;98419.00;;;;16527144;28;20718;-50
2022/09/25 03:24:51;;;;;;;26.07;22.47;;;;;15.50;98424.00;;;;16545652;28;20322;-49
2022/09/25 03:32:53;;;;;;;26.90;21.80;;;;;15.40;98428.00;;;;16536244;28;20266;-50
2022/09/25 03:40:57;;;;;;;22.17;19.80;;;;;15.40;98427.00;;;;16563011;28;20264;-50
2022/09/25 03:48:59;;;;;;;25.37;22.60;;;;;15.20;98428.00;;;;16528223;28;20234;-50
2022/09/25 03:57:03;;;;;;;34.43;27.17;;;;;15.60;98412.00;;;;16553717;28;20230;-50
2022/09/25 04:05:08;;;;;;;26.20;21.17;;;;;15.20;98406.00;;;;16550351;28;20225;-50
2022/09/25 04:13:12;;;;;;;22.73;18.10;;;;;15.30;98415.00;;;;16552286;28;20916;-49
2022/09/25 04:21:15;;;;;;;22.13;18.10;;;;;15.50;98404.00;;;;16549611;28;20316;-50
2022/09/25 04:29:20;;;;;;;21.00;16.50;;;;;15.60;98414.00;;;;16557987;28;20215;-50
2022/09/25 04:37:25;;;;;;;18.37;15.87;;;;;15.50;98417.00;;;;16559539;28;20234;-49
2022/09/25 04:45:29;;;;;;;18.57;15.80;;;;;15.90;98411.00;;;;16550165;28;20222;-49
2022/09/25 04:53:34;;;;;;;16.60;14.20;;;;;15.60;98413.00;;;;16507920;28;20271;-49
2022/09/25 05:01:38;;;;;;;16.20;14.50;;;;;15.70;98412.00;;;;16487753;28;20228;-49
2022/09/25 05:09:40;;;;;;;14.77;11.60;;;;;15.80;98412.00;;;;16510352;28;20465;-50
2022/09/25 05:17:44;;;;;;;14.03;12.63;;;;;15.50;98425.00;;;;16535075;28;20231;-49
2022/09/25 05:25:52;;;;;;;15.07;12.60;;;;;15.40;98423.00;;;;16536772;28;20229;-50
2022/09/25 05:33:56;;;;;;;20.10;15.23;;;;;15.50;98421.00;;;;16524601;28;20707;-50
2022/09/25 05:42:01;;;;;;;15.73;13.20;;;;;15.60;98428.00;;;;16553316;28;20273;-49
2022/09/25 05:50:06;;;;;;;14.63;13.00;;;;;15.50;98429.00;;;;16513142;28;20238;-49
2022/09/25 05:58:08;;;;;;;13.50;12.10;;;;;15.40;98441.00;;;;16524107;28;20239;-49
2022/09/25 06:06:12;;;;;;;14.63;12.87;;;;;15.50;98429.00;;;;16493356;28;20234;-49
2022/09/25 06:14:15;;;;;;;12.30;10.70;;;;;15.50;98427.00;;;;16504007;28;20237;-49
2022/09/25 06:22:19;;;;;;;12.80;11.40;;;;;15.70;98426.00;;;;16496910;28;20216;-49
2022/09/25 06:30:21;;;;;;;14.00;12.30;;;;;15.70;98425.00;;;;16512683;28;20224;-50
2022/09/25 06:38:26;;;;;;;13.03;11.63;;;;;15.80;98425.00;;;;16495097;28;20232;-49
2022/09/25 06:46:28;;;;;;;14.00;12.30;;;;;15.80;98433.00;;;;16499004;28;20212;-49
2022/09/25 06:54:32;;;;;;;15.23;12.93;;;;;15.90;98429.00;;;;16489031;28;20318;-50
2022/09/25 07:10:57;;;;;;;24.60;19.17;;;;;18.50;98429.00;;;;16482410;28;20254;-47
2022/09/25 07:19:02;;;;;;;13.23;11.40;;;;;18.60;98421.00;;;;16483719;28;20633;-48
2022/09/25 07:27:06;;;;;;;18.17;15.37;;;;;18.50;98417.00;;;;16489355;28;20220;-46
2022/09/25 07:35:09;;;;;;;18.07;14.20;;;;;18.80;98415.00;;;;16496976;28;20220;-47
2022/09/25 07:43:13;;;;;;;14.57;12.97;;;;;18.90;98424.00;;;;16517747;28;20324;-48
2022/09/25 07:51:16;;;;;;;15.57;14.03;;;;;17.60;98427.00;;;;16505452;28;20231;-49
2022/09/25 07:59:20;;;;;;;15.60;14.00;;;;;16.50;98432.00;;;;16526961;28;20571;-50
2022/09/25 08:07:22;;;;;;;18.13;16.23;;;;;16.60;98442.00;;;;16512998;28;20637;-50
2022/09/25 08:15:26;;;;;;;17.63;15.90;;;;;16.70;98437.00;;;;16509310;28;20224;-50
2022/09/25 08:23:28;;;;;;;17.03;15.33;;;;;16.80;98440.00;;;;16485055;28;20729;-50
2022/09/25 08:31:33;;;;;;;15.70;14.13;;;;;17.00;98429.00;;;;16489190;28;20235;-49
2022/09/25 08:39:35;;;;;;;17.37;15.63;;;;;17.10;98435.00;;;;16499349;28;20240;-50
2022/09/25 08:56:16;;;;;;;16.20;14.67;;;;;18.10;98420.00;;;;16511274;28;20273;-49
2022/09/25 09:04:24;;;;;;;15.63;14.13;;;;;18.00;98417.00;;;;16499486;28;20258;-50
2022/09/25 09:12:35;;;;;;;14.80;13.40;;;;;18.00;98408.00;;;;16501471;28;20242;-49
2022/09/25 09:20:44;;;;;;;15.50;14.00;;;;;17.90;98406.00;;;;16487894;28;20235;-49
2022/09/25 09:29:01;;;;;;;15.00;13.67;;;;;18.00;98405.00;;;;16491763;28;20224;-49
2022/09/25 09:37:14;;;;;;;14.13;12.93;;;;;18.20;98400.00;;;;16495591;28;20728;-49
2022/09/25 09:45:20;;;;;;;13.07;11.97;;;;;18.20;98396.00;;;;16499757;28;20223;-50
2022/09/25 09:53:29;;;;;;;12.27;11.20;;;;;17.30;98398.00;;;;16500400;28;20291;-50
2022/09/25 10:01:35;;;;;;;11.97;10.97;;;;;17.90;98399.00;;;;16506502;28;20309;-49
2022/09/25 10:09:38;;;;;;;10.70;9.70;;;;;18.50;98398.00;;;;16495867;28;20233;-49
2022/09/25 10:17:41;;;;;;;11.93;10.83;;;;;18.20;98396.00;;;;16496562;28;20243;-50
2022/09/25 10:25:45;;;;;;;10.93;9.97;;;;;18.80;98385.00;;;;16485472;28;20224;-49
2022/09/25 10:34:03;;;;;;;11.30;10.23;;;;;18.80;98376.00;;;;16495321;28;20586;-50
2022/09/25 10:42:37;;;;;;;10.33;9.33;;;;;18.20;98396.00;;;;16494966;28;20230;-49
2022/09/25 10:50:41;;;;;;;11.30;10.20;;;;;18.60;98391.00;;;;16484221;28;20235;-49
2022/09/25 10:58:47;;;;;;;10.37;9.37;;;;;18.30;98390.00;;;;16490381;28;20711;-50
2022/09/25 11:06:52;;;;;;;10.57;9.57;;;;;18.00;98404.00;;;;16492175;28;20606;-49
2022/09/25 11:14:57;;;;;;;11.93;10.83;;;;;17.90;98395.00;;;;16500563;28;20223;-50
2022/09/25 11:23:22;;;;;;;11.73;10.63;;;;;17.40;98409.00;;;;16510687;28;20251;-50
2022/09/25 11:31:30;;;;;;;12.30;11.33;;;;;17.20;98414.00;;;;16523717;28;20227;-50
2022/09/25 11:48:05;;;;;;;17.40;15.70;;;;;17.10;98417.00;;;;16522410;28;20235;-49
2022/09/25 11:56:19;;;;;;;24.80;18.30;;;;;17.90;98412.00;;;;16560047;28;20224;-52
2022/09/25 12:04:37;;;;;;;19.43;17.77;;;;;18.20;98402.00;;;;16529732;28;20665;-50
2022/09/25 12:12:46;;;;;;;22.73;18.43;;;;;18.30;98393.00;;;;16529175;28;20224;-50
2022/09/25 12:20:53;;;;;;;15.80;14.40;;;;;18.90;98387.00;;;;16530108;28;20220;-49
2022/09/25 12:29:05;;;;;;;14.50;13.30;;;;;18.90;98367.00;;;;16527846;28;20760;-50
2022/09/25 12:37:19;;;;;;;14.13;12.77;;;;;19.20;98370.00;;;;16540148;28;20235;-50
2022/09/25 12:45:25;;;;;;;13.73;12.43;;;;;19.20;98356.00;;;;16543158;28;20216;-50
2022/09/25 12:53:34;;;;;;;13.17;11.93;;;;;19.80;98351.00;;;;16525829;28;20228;-49
2022/09/25 13:01:44;;;;;;;15.30;13.80;;;;;18.90;98354.00;;;;16505922;28;20237;-50
2022/09/25 13:09:49;;;;;;;16.83;13.97;;;;;19.20;98347.00;;;;16510416;28;20270;-50
2022/09/25 13:17:51;;;;;;;15.83;13.80;;;;;18.90;98338.00;;;;16517886;28;20620;-50
2022/09/25 13:26:00;;;;;;;16.43;15.00;;;;;19.90;98342.00;;;;16505599;28;20313;-50
2022/09/25 13:34:05;;;;;;;15.57;14.00;;;;;18.50;98346.00;;;;16499504;28;20324;-49
2022/09/25 13:42:14;;;;;;;12.63;11.53;;;;;19.30;98340.00;;;;16512814;28;20235;-50
2022/09/25 13:50:26;;;;;;;12.40;11.30;;;;;18.80;98342.00;;;;16501873;28;20358;-49
2022/09/25 13:58:32;;;;;;;11.63;10.53;;;;;18.30;98354.00;;;;16510249;28;20233;-50
2022/09/25 14:06:34;;;;;;;11.87;10.77;;;;;18.30;98356.00;;;;16507725;28;20238;-49
2022/09/25 14:14:44;;;;;;;12.40;10.80;;;;;18.70;98341.00;;;;16511617;28;20219;-50
2022/09/25 14:22:52;;;;;;;10.10;9.13;;;;;19.60;98335.00;;;;16511960;28;20230;-50
2022/09/25 14:31:20;;;;;;;10.13;9.23;;;;;18.80;98337.00;;;;16502279;28;20263;-50
2022/09/25 14:39:33;;;;;;;8.47;7.67;;;;;19.80;98326.00;;;;16494771;28;20235;-51
2022/09/25 14:47:39;;;;;;;7.83;7.13;;;;;20.20;98321.00;;;;16498972;28;20230;-50
2022/09/25 14:55:45;;;;;;;8.40;7.70;;;;;19.90;98318.00;;;;16500226;28;20263;-50
2022/09/25 15:03:50;;;;;;;8.73;7.93;;;;;20.00;98321.00;;;;16491520;28;20207;-50
2022/09/25 15:11:54;;;;;;;8.00;7.33;;;;;19.90;98312.00;;;;16489118;28;20224;-50
2022/09/25 15:19:59;;;;;;;7.70;6.93;;;;;20.00;98307.00;;;;16500137;28;20227;-50
2022/09/25 15:28:06;;;;;;;7.93;7.23;;;;;19.10;98315.00;;;;16503573;28;20218;-49
2022/09/25 15:36:19;;;;;;;7.77;7.00;;;;;19.80;98302.00;;;;16498071;28;20240;-50
2022/09/25 15:44:22;;;;;;;5.80;5.20;;;;;20.20;98303.00;;;;16495729;28;20227;-50
2022/09/25 15:52:32;;;;;;;6.23;5.63;;;;;19.20;98307.00;;;;16498140;28;20228;-49
2022/09/25 16:09:09;;;;;;;8.63;7.87;;;;;18.30;98303.00;;;;16510672;28;20239;-49
2022/09/25 16:17:17;;;;;;;8.20;7.40;;;;;18.70;98319.00;;;;16498625;28;20236;-50
2022/09/25 16:25:25;;;;;;;9.07;8.10;;;;;18.10;98321.00;;;;16517719;28;20233;-50
2022/09/25 16:33:30;;;;;;;6.93;6.20;;;;;17.50;98340.00;;;;16495312;28;20248;-49
2022/09/25 16:41:34;;;;;;;3.57;3.27;;;;;17.40;98348.00;;;;16510257;28;20234;-49
2022/09/25 16:49:37;;;;;;;3.17;2.87;;;;;17.20;98346.00;;;;16509802;28;20707;-49
2022/09/25 16:57:41;;;;;;;2.13;2.03;;;;;16.70;98365.00;;;;16513629;28;20228;-49
2022/09/25 17:05:44;;;;;;;3.77;2.87;;;;;16.60;98376.00;;;;16511638;28;20270;-49
2022/09/25 17:13:49;;;;;;;4.20;3.80;;;;;16.50;98374.00;;;;16520065;28;20309;-49
2022/09/25 17:21:52;;;;;;;4.90;4.50;;;;;16.60;98383.00;;;;16511161;28;20230;-49
2022/09/25 17:29:56;;;;;;;5.37;4.97;;;;;16.50;98393.00;;;;16510348;28;20220;-49
2022/09/25 17:38:00;;;;;;;4.60;4.30;;;;;16.30;98388.00;;;;16506799;28;20227;-50
2022/09/25 17:46:04;;;;;;;5.73;5.33;;;;;15.90;98397.00;;;;16499989;28;20229;-49
2022/09/25 17:54:07;;;;;;;9.90;9.00;;;;;15.80;98406.00;;;;16497722;28;20869;-50
2022/09/25 18:02:15;;;;;;;9.80;9.00;;;;;15.80;98410.00;;;;16499960;28;20230;-48
2022/09/25 18:10:19;;;;;;;10.73;9.83;;;;;15.70;98425.00;;;;16491865;28;20448;-49
2022/09/25 18:18:22;;;;;;;11.00;10.00;;;;;15.60;98430.00;;;;16492016;28;20226;-49
2022/09/25 18:26:25;;;;;;;10.60;9.60;;;;;15.70;98436.00;;;;16486333;28;20228;-49
2022/09/25 18:34:29;;;;;;;11.50;10.40;;;;;15.50;98440.00;;;;16493549;28;20236;-50
2022/09/25 18:42:31;;;;;;;14.43;13.03;;;;;15.60;98433.00;;;;16490427;28;20232;-49
2022/09/25 18:50:35;;;;;;;14.27;12.73;;;;;15.60;98443.00;;;;16487659;28;20239;-49
2022/09/25 18:58:38;;;;;;;14.10;12.70;;;;;15.50;98450.00;;;;16485833;28;20235;-49
2022/09/25 19:06:42;;;;;;;17.90;15.10;;;;;15.60;98457.00;;;;16495939;28;20315;-48
2022/09/25 19:14:45;;;;;;;16.57;14.87;;;;;15.40;98464.00;;;;16488552;28;20229;-49
2022/09/25 19:22:51;;;;;;;16.87;15.07;;;;;15.10;98468.00;;;;16501892;28;20242;-50
2022/09/25 19:30:58;;;;;;;19.27;15.10;;;;;15.00;98480.00;;;;16519114;28;20223;-48
2022/09/25 19:39:02;;;;;;;20.60;16.50;;;;;15.10;98494.00;;;;16529447;28;20707;-50
2022/09/25 19:47:04;;;;;;;19.90;16.10;;;;;15.20;98482.00;;;;16510174;28;20584;-53
2022/09/25 19:55:09;;;;;;;17.20;15.37;;;;;15.20;98498.00;;;;16526085;28;21716;-49
2022/09/25 20:03:12;;;;;;;16.33;14.57;;;;;15.10;98493.00;;;;16533104;28;20201;-49
2022/09/25 20:11:18;;;;;;;17.90;16.00;;;;;15.20;98473.00;;;;16522850;28;20227;-50
2022/09/25 20:19:22;;;;;;;18.10;16.27;;;;;15.30;98477.00;;;;16524216;28;20234;-50
2022/09/25 20:27:26;;;;;;;20.27;17.10;;;;;15.10;98473.00;;;;16526665;28;20220;-48
2022/09/25 20:35:29;;;;;;;16.17;14.57;;;;;14.90;98482.00;;;;16541734;28;20322;-47
2022/09/25 20:43:33;;;;;;;17.10;15.30;;;;;15.00;98480.00;;;;16535998;28;20995;-47
2022/09/25 20:51:37;;;;;;;16.43;13.63;;;;;14.70;98481.00;;;;16528217;28;20741;-47
2022/09/25 20:59:41;;;;;;;16.93;14.60;;;;;14.60;98482.00;;;;16543939;28;20573;-48
2022/09/25 21:07:43;;;;;;;15.50;13.13;;;;;14.60;98474.00;;;;16523628;28;20226;-48
2022/09/25 21:15:47;;;;;;;17.83;13.87;;;;;14.60;98487.00;;;;16507328;28;20369;-48
2022/09/25 21:23:51;;;;;;;14.70;12.70;;;;;14.70;98481.00;;;;16499252;28;20844;-48
2022/09/25 21:31:55;;;;;;;12.43;11.10;;;;;14.80;98466.00;;;;16509296;28;20783;-48
2022/09/25 21:39:58;;;;;;;12.33;10.30;;;;;14.70;98466.00;;;;16537062;28;20742;-48
2022/09/25 21:48:02;;;;;;;13.80;11.03;;;;;15.40;98461.00;;;;16531430;28;20229;-47
2022/09/25 21:56:06;;;;;;;10.73;9.17;;;;;14.80;98470.00;;;;16553581;28;20226;-47
2022/09/25 22:04:13;;;;;;;10.63;9.50;;;;;14.90;98468.00;;;;16538099;28;20572;-48
2022/09/25 22:12:15;;;;;;;11.10;8.23;;;;;14.80;98473.00;;;;16537815;28;20232;-48
2022/09/25 22:20:19;;;;;;;14.90;7.80;;;;;14.90;98474.00;;;;16505706;28;20220;-47
2022/09/25 22:28:21;;;;;;;10.63;8.23;;;;;14.80;98453.00;;;;16507886;28;20227;-48
2022/09/25 22:36:27;;;;;;;11.50;7.57;;;;;14.60;98466.00;;;;16506606;28;20239;-48
2022/09/25 22:44:29;;;;;;;13.97;9.63;;;;;14.60;98468.00;;;;16514107;28;20207;-48
2022/09/25 22:52:34;;;;;;;12.40;9.37;;;;;14.50;98464.00;;;;16520488;28;20227;-48
2022/09/25 23:00:37;;;;;;;9.07;7.90;;;;;14.70;98461.00;;;;16520185;28;20238;-48
2022/09/25 23:08:41;;;;;;;13.23;8.73;;;;;15.00;98449.00;;;;16505697;28;20707;-48
2022/09/25 23:16:43;;;;;;;7.83;7.13;;;;;15.10;98442.00;;;;16508807;28;20732;-48
2022/09/25 23:24:47;;;;;;;11.40;7.93;;;;;14.70;98438.00;;;;16506786;28;20743;-48
2022/09/25 23:32:50;;;;;;;8.03;7.23;;;;;15.20;98422.00;;;;16500393;28;20206;-47
2022/09/25 23:40:53;;;;;;;9.50;8.27;;;;;15.40;98406.00;;;;16505092;28;20245;-48
2022/09/25 23:48:56;;;;;;;8.67;7.73;;;;;15.80;98400.00;;;;16502056;28;20227;-48
2022/09/25 23:57:00;;;;;;;10.67;7.67;;;;;15.60;98403.00;;;;16500294;28;20706;-48
